This is the latest recevied weather packets stored in our database for station/object DL2DHM-13. If no packets are shown the sender has not sent any weather packets the latest 10 day(s).
| Time | Temp. | Humidity | Pressure | Rain* | Wind** | Luminosity | Snow |
|---|---|---|---|---|---|---|---|
| 1777905944 | 20.56° C | 64% | 1010.1 hPa | 0 mm | - | 223 W/m² | - |
| 1777904143 | 21.11° C | 61% | 1010.3 hPa | 0 mm | - | 439 W/m² | - |
| 1777900537 | 20.56° C | 62% | 1010.5 hPa | 0 mm | - | 482 W/m² | - |
| 1777900237 | 20.56° C | 63% | 1010.5 hPa | 0 mm | - | 322 W/m² | - |
| 1777896636 | 20° C | 61% | 1010.8 hPa | 0 mm | - | 322 W/m² | - |
| 1777895138 | 19.44° C | 66% | 1011.1 hPa | 0 mm | - | 287 W/m² | - |
| 1777894231 | 19.44° C | 66% | 1011.2 hPa | 0 mm | - | 281 W/m² | - |
| 1777891829 | 20.56° C | 64% | 1011.3 hPa | 0 mm | - | 1005 W/m² | - |
| 1777891225 | 20.56° C | 63% | 1011.3 hPa | 0 mm | - | 976 W/m² | - |
| 1777890324 | 20° C | 65% | 1011.4 hPa | 0 mm | - | 367 W/m² | - |
| 1777889423 | 19.44° C | 63% | 1011.5 hPa | 0 mm | - | 907 W/m² | - |
| 1777886717 | 18.33° C | 70% | 1011.8 hPa | 0 mm | - | 861 W/m² | - |
| 1777883722 | 17.78° C | 72% | 1011.9 hPa | 0 mm | - | 387 W/m² | - |
| 1777882806 | 16.67° C | 79% | 1011.8 hPa | 0 mm | - | 459 W/m² | - |
| 1777882204 | 16.11° C | 80% | 1011.9 hPa | 0 mm | - | 204 W/m² | - |
| 1777881302 | 16.67° C | 80% | 1011.9 hPa | 0 mm | - | 279 W/m² | - |
| 1777880160 | 16.11° C | 81% | 1011.8 hPa | 0 mm | - | 294 W/m² | - |
| 1777879857 | 16.11° C | 82% | 1011.7 hPa | 0 mm | - | 243 W/m² | - |
| 1777879559 | 15.56° C | 82% | 1011.7 hPa | 0 mm | - | 202 W/m² | - |
| 1777878656 | 15.56° C | 82% | 1011.7 hPa | 0 mm | - | 148 W/m² | - |
| 1777878055 | 15.56° C | 82% | 1011.5 hPa | 0 mm | - | 183 W/m² | - |
| 1777876251 | 15° C | 84% | 1011.3 hPa | 0 mm | - | 93 W/m² | - |
| 1777875947 | 14.44° C | 84% | 1011.2 hPa | 0 mm | - | 125 W/m² | - |
| 1777875646 | 14.44° C | 85% | 1011.2 hPa | 0 mm | - | 144 W/m² | - |
| 1777875044 | 14.44° C | 85% | 1011 hPa | 0 mm | - | 109 W/m² | - |
* Rain latest hour (hover to see other rain measurements)
** Current wind speed in m/s (hover to see current wind gust speed)